sensor_id;sensor_type;location;lat;lon;timestamp;P1;durP1;ratioP1;P2;durP2;ratioP2
35128;SDS011;21301;43.626;10.580;2022-12-07T00:03:42;43.13;;;21.73;;
35128;SDS011;21301;43.626;10.580;2022-12-07T00:06:10;37.47;;;19.13;;
35128;SDS011;21301;43.626;10.580;2022-12-07T00:08:37;35.55;;;20.65;;
35128;SDS011;21301;43.626;10.580;2022-12-07T00:11:04;68.10;;;21.42;;
35128;SDS011;21301;43.626;10.580;2022-12-07T00:13:37;50.05;;;20.55;;
35128;SDS011;21301;43.626;10.580;2022-12-07T00:16:08;72.15;;;22.02;;
35128;SDS011;21301;43.626;10.580;2022-12-07T00:18:36;87.25;;;20.90;;
35128;SDS011;21301;43.626;10.580;2022-12-07T00:21:03;49.10;;;19.55;;
35128;SDS011;21301;43.626;10.580;2022-12-07T00:23:31;53.63;;;20.60;;
35128;SDS011;21301;43.626;10.580;2022-12-07T00:26:08;66.32;;;20.33;;
35128;SDS011;21301;43.626;10.580;2022-12-07T00:28:37;69.63;;;20.95;;
35128;SDS011;21301;43.626;10.580;2022-12-07T00:31:11;38.88;;;19.17;;
35128;SDS011;21301;43.626;10.580;2022-12-07T00:33:38;72.50;;;21.05;;
35128;SDS011;21301;43.626;10.580;2022-12-07T00:36:05;207.05;;;27.48;;
35128;SDS011;21301;43.626;10.580;2022-12-07T00:38:34;60.88;;;20.88;;
35128;SDS011;21301;43.626;10.580;2022-12-07T00:41:02;138.32;;;54.65;;
35128;SDS011;21301;43.626;10.580;2022-12-07T00:43:34;51.03;;;21.13;;
35128;SDS011;21301;43.626;10.580;2022-12-07T00:46:00;76.25;;;21.13;;
35128;SDS011;21301;43.626;10.580;2022-12-07T00:48:26;72.35;;;21.77;;
35128;SDS011;21301;43.626;10.580;2022-12-07T00:50:51;67.68;;;20.05;;
35128;SDS011;21301;43.626;10.580;2022-12-07T00:53:17;95.28;;;34.10;;
35128;SDS011;21301;43.626;10.580;2022-12-07T00:55:44;148.85;;;33.20;;
35128;SDS011;21301;43.626;10.580;2022-12-07T00:58:10;57.58;;;21.33;;
35128;SDS011;21301;43.626;10.580;2022-12-07T01:00:37;76.25;;;20.73;;
35128;SDS011;21301;43.626;10.580;2022-12-07T01:03:04;59.65;;;21.52;;
35128;SDS011;21301;43.626;10.580;2022-12-07T01:05:31;81.13;;;24.02;;
35128;SDS011;21301;43.626;10.580;2022-12-07T01:07:57;53.15;;;20.63;;
35128;SDS011;21301;43.626;10.580;2022-12-07T01:10:23;61.15;;;20.77;;
35128;SDS011;21301;43.626;10.580;2022-12-07T01:12:49;94.30;;;22.77;;
35128;SDS011;21301;43.626;10.580;2022-12-07T01:15:14;29.55;;;18.20;;
35128;SDS011;21301;43.626;10.580;2022-12-07T01:17:40;58.63;;;18.52;;
35128;SDS011;21301;43.626;10.580;2022-12-07T01:20:07;39.88;;;17.65;;
35128;SDS011;21301;43.626;10.580;2022-12-07T01:22:37;51.05;;;20.73;;
35128;SDS011;21301;43.626;10.580;2022-12-07T01:25:04;33.42;;;19.27;;
35128;SDS011;21301;43.626;10.580;2022-12-07T01:27:30;53.25;;;21.15;;
35128;SDS011;21301;43.626;10.580;2022-12-07T01:29:58;43.58;;;20.20;;
35128;SDS011;21301;43.626;10.580;2022-12-07T01:32:24;33.75;;;19.17;;
35128;SDS011;21301;43.626;10.580;2022-12-07T01:34:50;41.47;;;22.98;;
35128;SDS011;21301;43.626;10.580;2022-12-07T01:37:16;38.47;;;23.52;;
35128;SDS011;21301;43.626;10.580;2022-12-07T01:39:41;31.40;;;20.10;;
35128;SDS011;21301;43.626;10.580;2022-12-07T01:42:10;28.02;;;18.20;;
35128;SDS011;21301;43.626;10.580;2022-12-07T01:47:40;21.60;;;14.73;;
35128;SDS011;21301;43.626;10.580;2022-12-07T01:50:07;22.73;;;15.45;;
35128;SDS011;21301;43.626;10.580;2022-12-07T01:52:34;23.48;;;15.70;;
35128;SDS011;21301;43.626;10.580;2022-12-07T01:55:09;24.92;;;16.30;;
35128;SDS011;21301;43.626;10.580;2022-12-07T01:57:39;30.50;;;17.65;;
35128;SDS011;21301;43.626;10.580;2022-12-07T02:00:08;27.55;;;17.15;;
35128;SDS011;21301;43.626;10.580;2022-12-07T02:02:41;28.15;;;17.85;;
35128;SDS011;21301;43.626;10.580;2022-12-07T02:07:38;30.95;;;17.75;;
35128;SDS011;21301;43.626;10.580;2022-12-07T02:12:49;36.80;;;20.60;;
35128;SDS011;21301;43.626;10.580;2022-12-07T02:15:20;26.13;;;17.92;;
35128;SDS011;21301;43.626;10.580;2022-12-07T02:20:34;27.65;;;16.60;;
35128;SDS011;21301;43.626;10.580;2022-12-07T02:31:48;38.22;;;18.67;;
35128;SDS011;21301;43.626;10.580;2022-12-07T02:36:55;35.90;;;20.33;;
35128;SDS011;21301;43.626;10.580;2022-12-07T02:39:31;27.05;;;17.27;;
35128;SDS011;21301;43.626;10.580;2022-12-07T02:42:10;28.23;;;16.73;;
35128;SDS011;21301;43.626;10.580;2022-12-07T02:44:40;28.55;;;17.10;;
35128;SDS011;21301;43.626;10.580;2022-12-07T02:47:08;32.58;;;18.25;;
35128;SDS011;21301;43.626;10.580;2022-12-07T02:49:36;24.20;;;15.40;;
35128;SDS011;21301;43.626;10.580;2022-12-07T02:52:04;24.67;;;16.77;;
35128;SDS011;21301;43.626;10.580;2022-12-07T02:54:30;23.30;;;15.95;;
35128;SDS011;21301;43.626;10.580;2022-12-07T03:08:01;27.35;;;16.67;;
35128;SDS011;21301;43.626;10.580;2022-12-07T03:18:36;22.38;;;14.38;;
35128;SDS011;21301;43.626;10.580;2022-12-07T03:21:10;24.60;;;16.20;;
35128;SDS011;21301;43.626;10.580;2022-12-07T03:23:40;23.70;;;15.23;;
35128;SDS011;21301;43.626;10.580;2022-12-07T03:26:08;20.92;;;15.05;;
35128;SDS011;21301;43.626;10.580;2022-12-07T03:28:40;20.40;;;13.63;;
35128;SDS011;21301;43.626;10.580;2022-12-07T03:31:20;16.55;;;12.07;;
35128;SDS011;21301;43.626;10.580;2022-12-07T03:33:59;16.98;;;12.80;;
35128;SDS011;21301;43.626;10.580;2022-12-07T03:39:26;22.05;;;14.07;;
35128;SDS011;21301;43.626;10.580;2022-12-07T03:42:23;19.52;;;13.85;;
35128;SDS011;21301;43.626;10.580;2022-12-07T03:44:49;24.55;;;16.13;;
35128;SDS011;21301;43.626;10.580;2022-12-07T03:49:59;25.60;;;17.10;;
35128;SDS011;21301;43.626;10.580;2022-12-07T03:52:33;19.95;;;14.10;;
35128;SDS011;21301;43.626;10.580;2022-12-07T03:55:17;21.08;;;14.50;;
35128;SDS011;21301;43.626;10.580;2022-12-07T04:00:32;23.67;;;16.25;;
35128;SDS011;21301;43.626;10.580;2022-12-07T04:02:58;24.45;;;14.57;;
35128;SDS011;21301;43.626;10.580;2022-12-07T04:05:24;25.52;;;15.63;;
35128;SDS011;21301;43.626;10.580;2022-12-07T04:07:50;27.52;;;17.63;;
35128;SDS011;21301;43.626;10.580;2022-12-07T04:10:16;27.00;;;17.52;;
35128;SDS011;21301;43.626;10.580;2022-12-07T04:12:42;28.73;;;17.55;;
35128;SDS011;21301;43.626;10.580;2022-12-07T04:15:08;22.08;;;14.18;;
35128;SDS011;21301;43.626;10.580;2022-12-07T04:17:34;25.38;;;15.13;;
35128;SDS011;21301;43.626;10.580;2022-12-07T04:20:00;23.67;;;14.80;;
35128;SDS011;21301;43.626;10.580;2022-12-07T04:22:26;25.95;;;14.40;;
35128;SDS011;21301;43.626;10.580;2022-12-07T04:24:52;28.15;;;15.20;;
35128;SDS011;21301;43.626;10.580;2022-12-07T04:27:17;48.78;;;16.52;;
35128;SDS011;21301;43.626;10.580;2022-12-07T04:29:43;45.67;;;15.95;;
35128;SDS011;21301;43.626;10.580;2022-12-07T04:32:09;39.17;;;16.48;;
35128;SDS011;21301;43.626;10.580;2022-12-07T04:34:35;56.40;;;19.58;;
35128;SDS011;21301;43.626;10.580;2022-12-07T04:37:01;56.50;;;20.88;;
35128;SDS011;21301;43.626;10.580;2022-12-07T04:39:28;35.15;;;15.65;;
35128;SDS011;21301;43.626;10.580;2022-12-07T04:41:56;37.33;;;16.13;;
35128;SDS011;21301;43.626;10.580;2022-12-07T04:44:22;28.45;;;15.48;;
35128;SDS011;21301;43.626;10.580;2022-12-07T04:46:49;26.70;;;15.35;;
35128;SDS011;21301;43.626;10.580;2022-12-07T04:49:16;22.55;;;15.00;;
35128;SDS011;21301;43.626;10.580;2022-12-07T04:51:43;24.45;;;14.75;;
35128;SDS011;21301;43.626;10.580;2022-12-07T04:54:09;39.60;;;15.98;;
35128;SDS011;21301;43.626;10.580;2022-12-07T04:56:36;27.15;;;15.70;;
35128;SDS011;21301;43.626;10.580;2022-12-07T04:59:02;20.27;;;13.32;;
35128;SDS011;21301;43.626;10.580;2022-12-07T05:01:28;21.17;;;12.82;;
35128;SDS011;21301;43.626;10.580;2022-12-07T05:03:54;32.95;;;13.05;;
35128;SDS011;21301;43.626;10.580;2022-12-07T05:06:20;27.30;;;12.88;;
35128;SDS011;21301;43.626;10.580;2022-12-07T05:08:46;20.15;;;11.30;;
35128;SDS011;21301;43.626;10.580;2022-12-07T05:11:12;29.20;;;12.32;;
35128;SDS011;21301;43.626;10.580;2022-12-07T05:13:59;34.53;;;12.23;;
35128;SDS011;21301;43.626;10.580;2022-12-07T05:16:25;51.58;;;13.00;;
35128;SDS011;21301;43.626;10.580;2022-12-07T05:18:51;47.13;;;12.85;;
35128;SDS011;21301;43.626;10.580;2022-12-07T05:21:17;19.58;;;11.48;;
35128;SDS011;21301;43.626;10.580;2022-12-07T05:23:43;22.67;;;11.30;;
35128;SDS011;21301;43.626;10.580;2022-12-07T05:26:09;33.72;;;11.77;;
35128;SDS011;21301;43.626;10.580;2022-12-07T05:28:35;32.63;;;12.55;;
35128;SDS011;21301;43.626;10.580;2022-12-07T05:31:01;23.80;;;12.32;;
35128;SDS011;21301;43.626;10.580;2022-12-07T05:33:27;22.02;;;12.13;;
35128;SDS011;21301;43.626;10.580;2022-12-07T05:35:53;19.90;;;11.80;;
35128;SDS011;21301;43.626;10.580;2022-12-07T05:38:21;33.03;;;12.52;;
35128;SDS011;21301;43.626;10.580;2022-12-07T05:40:47;29.67;;;12.43;;
35128;SDS011;21301;43.626;10.580;2022-12-07T05:43:13;74.72;;;17.52;;
35128;SDS011;21301;43.626;10.580;2022-12-07T05:45:39;60.17;;;15.65;;
35128;SDS011;21301;43.626;10.580;2022-12-07T05:48:05;40.60;;;15.35;;
35128;SDS011;21301;43.626;10.580;2022-12-07T05:50:31;54.85;;;15.68;;
35128;SDS011;21301;43.626;10.580;2022-12-07T05:53:00;28.20;;;13.48;;
35128;SDS011;21301;43.626;10.580;2022-12-07T05:55:25;35.35;;;13.30;;
35128;SDS011;21301;43.626;10.580;2022-12-07T05:57:51;42.15;;;13.68;;
35128;SDS011;21301;43.626;10.580;2022-12-07T06:00:36;32.83;;;12.23;;
35128;SDS011;21301;43.626;10.580;2022-12-07T06:03:01;30.70;;;14.57;;
35128;SDS011;21301;43.626;10.580;2022-12-07T06:05:27;22.15;;;13.10;;
35128;SDS011;21301;43.626;10.580;2022-12-07T06:07:53;25.63;;;15.25;;
35128;SDS011;21301;43.626;10.580;2022-12-07T06:10:19;32.45;;;21.40;;
35128;SDS011;21301;43.626;10.580;2022-12-07T06:12:45;35.10;;;20.10;;
35128;SDS011;21301;43.626;10.580;2022-12-07T06:15:11;34.08;;;20.33;;
35128;SDS011;21301;43.626;10.580;2022-12-07T06:17:38;59.45;;;21.35;;
35128;SDS011;21301;43.626;10.580;2022-12-07T06:20:04;29.48;;;18.77;;
35128;SDS011;21301;43.626;10.580;2022-12-07T06:22:31;29.85;;;17.60;;
35128;SDS011;21301;43.626;10.580;2022-12-07T06:24:57;39.80;;;19.92;;
35128;SDS011;21301;43.626;10.580;2022-12-07T06:27:22;26.00;;;17.08;;
35128;SDS011;21301;43.626;10.580;2022-12-07T06:29:48;26.08;;;16.58;;
35128;SDS011;21301;43.626;10.580;2022-12-07T06:32:14;38.45;;;18.60;;
35128;SDS011;21301;43.626;10.580;2022-12-07T06:34:40;122.70;;;22.77;;
35128;SDS011;21301;43.626;10.580;2022-12-07T06:37:06;31.45;;;17.67;;
35128;SDS011;21301;43.626;10.580;2022-12-07T06:39:32;59.67;;;18.70;;
35128;SDS011;21301;43.626;10.580;2022-12-07T06:41:58;181.60;;;26.88;;
35128;SDS011;21301;43.626;10.580;2022-12-07T06:44:24;142.45;;;23.85;;
35128;SDS011;21301;43.626;10.580;2022-12-07T06:46:50;87.03;;;18.65;;
35128;SDS011;21301;43.626;10.580;2022-12-07T06:49:17;59.50;;;18.80;;
35128;SDS011;21301;43.626;10.580;2022-12-07T06:51:43;49.78;;;18.73;;
35128;SDS011;21301;43.626;10.580;2022-12-07T06:54:09;55.47;;;19.13;;
35128;SDS011;21301;43.626;10.580;2022-12-07T06:56:36;112.20;;;21.83;;
35128;SDS011;21301;43.626;10.580;2022-12-07T06:59:02;93.38;;;18.65;;
35128;SDS011;21301;43.626;10.580;2022-12-07T07:01:30;62.50;;;18.25;;
35128;SDS011;21301;43.626;10.580;2022-12-07T07:03:57;56.33;;;16.85;;
35128;SDS011;21301;43.626;10.580;2022-12-07T07:06:22;52.70;;;16.80;;
35128;SDS011;21301;43.626;10.580;2022-12-07T07:08:49;50.17;;;15.18;;
35128;SDS011;21301;43.626;10.580;2022-12-07T07:11:15;50.42;;;17.48;;
35128;SDS011;21301;43.626;10.580;2022-12-07T07:13:42;60.70;;;18.10;;
35128;SDS011;21301;43.626;10.580;2022-12-07T07:16:08;32.88;;;16.60;;
35128;SDS011;21301;43.626;10.580;2022-12-07T07:18:34;39.55;;;16.85;;
35128;SDS011;21301;43.626;10.580;2022-12-07T07:21:00;52.90;;;17.50;;
35128;SDS011;21301;43.626;10.580;2022-12-07T07:23:26;54.67;;;15.75;;
35128;SDS011;21301;43.626;10.580;2022-12-07T07:25:52;28.65;;;13.98;;
35128;SDS011;21301;43.626;10.580;2022-12-07T07:28:18;39.33;;;14.85;;
35128;SDS011;21301;43.626;10.580;2022-12-07T07:30:44;26.90;;;14.35;;
35128;SDS011;21301;43.626;10.580;2022-12-07T07:33:10;36.75;;;18.70;;
35128;SDS011;21301;43.626;10.580;2022-12-07T07:35:36;29.23;;;14.55;;
35128;SDS011;21301;43.626;10.580;2022-12-07T07:38:02;32.00;;;14.32;;
35128;SDS011;21301;43.626;10.580;2022-12-07T07:40:28;29.67;;;12.80;;
35128;SDS011;21301;43.626;10.580;2022-12-07T07:42:55;31.00;;;14.93;;
35128;SDS011;21301;43.626;10.580;2022-12-07T07:45:21;29.23;;;14.35;;
35128;SDS011;21301;43.626;10.580;2022-12-07T07:47:48;34.33;;;15.50;;
35128;SDS011;21301;43.626;10.580;2022-12-07T07:50:15;30.67;;;13.75;;
35128;SDS011;21301;43.626;10.580;2022-12-07T07:52:41;28.30;;;12.95;;
35128;SDS011;21301;43.626;10.580;2022-12-07T07:55:07;51.58;;;14.38;;
35128;SDS011;21301;43.626;10.580;2022-12-07T07:57:34;38.58;;;12.90;;
35128;SDS011;21301;43.626;10.580;2022-12-07T08:00:01;63.97;;;15.57;;
35128;SDS011;21301;43.626;10.580;2022-12-07T08:02:37;39.60;;;12.77;;
35128;SDS011;21301;43.626;10.580;2022-12-07T08:05:03;49.45;;;13.90;;
35128;SDS011;21301;43.626;10.580;2022-12-07T08:07:29;33.28;;;12.60;;
35128;SDS011;21301;43.626;10.580;2022-12-07T08:09:55;31.25;;;12.05;;
35128;SDS011;21301;43.626;10.580;2022-12-07T08:12:21;25.95;;;11.93;;
35128;SDS011;21301;43.626;10.580;2022-12-07T08:14:46;37.30;;;12.85;;
35128;SDS011;21301;43.626;10.580;2022-12-07T08:17:12;31.75;;;12.63;;
35128;SDS011;21301;43.626;10.580;2022-12-07T08:19:38;38.72;;;14.73;;
35128;SDS011;21301;43.626;10.580;2022-12-07T08:22:04;35.83;;;15.88;;
35128;SDS011;21301;43.626;10.580;2022-12-07T08:24:32;45.40;;;17.58;;
35128;SDS011;21301;43.626;10.580;2022-12-07T08:26:58;39.05;;;16.65;;
35128;SDS011;21301;43.626;10.580;2022-12-07T08:29:24;28.52;;;14.50;;
35128;SDS011;21301;43.626;10.580;2022-12-07T08:31:50;27.35;;;14.60;;
35128;SDS011;21301;43.626;10.580;2022-12-07T08:34:16;34.90;;;16.20;;
35128;SDS011;21301;43.626;10.580;2022-12-07T08:36:42;34.92;;;15.93;;
35128;SDS011;21301;43.626;10.580;2022-12-07T08:39:08;33.85;;;15.77;;
35128;SDS011;21301;43.626;10.580;2022-12-07T08:41:34;29.10;;;13.43;;
35128;SDS011;21301;43.626;10.580;2022-12-07T08:44:00;28.63;;;15.70;;
35128;SDS011;21301;43.626;10.580;2022-12-07T08:46:37;38.03;;;16.90;;
35128;SDS011;21301;43.626;10.580;2022-12-07T08:51:41;36.80;;;16.27;;
35128;SDS011;21301;43.626;10.580;2022-12-07T08:54:09;26.65;;;15.65;;
35128;SDS011;21301;43.626;10.580;2022-12-07T08:56:38;27.83;;;13.80;;
35128;SDS011;21301;43.626;10.580;2022-12-07T08:59:04;24.17;;;13.95;;
35128;SDS011;21301;43.626;10.580;2022-12-07T09:01:31;29.23;;;16.35;;
35128;SDS011;21301;43.626;10.580;2022-12-07T09:03:58;30.52;;;14.82;;
35128;SDS011;21301;43.626;10.580;2022-12-07T09:06:23;24.70;;;14.15;;
35128;SDS011;21301;43.626;10.580;2022-12-07T09:08:51;28.35;;;15.07;;
35128;SDS011;21301;43.626;10.580;2022-12-07T09:11:20;30.73;;;13.45;;
35128;SDS011;21301;43.626;10.580;2022-12-07T09:13:46;22.85;;;15.38;;
35128;SDS011;21301;43.626;10.580;2022-12-07T09:16:12;25.75;;;14.57;;
35128;SDS011;21301;43.626;10.580;2022-12-07T09:18:38;24.85;;;13.73;;
35128;SDS011;21301;43.626;10.580;2022-12-07T09:21:04;23.35;;;15.40;;
35128;SDS011;21301;43.626;10.580;2022-12-07T09:23:30;26.77;;;13.77;;
35128;SDS011;21301;43.626;10.580;2022-12-07T09:25:59;25.02;;;14.27;;
35128;SDS011;21301;43.626;10.580;2022-12-07T09:28:26;21.48;;;13.88;;
35128;SDS011;21301;43.626;10.580;2022-12-07T09:30:52;20.98;;;12.52;;
35128;SDS011;21301;43.626;10.580;2022-12-07T09:33:18;21.75;;;13.38;;
35128;SDS011;21301;43.626;10.580;2022-12-07T09:35:47;22.10;;;13.95;;
35128;SDS011;21301;43.626;10.580;2022-12-07T09:38:14;21.88;;;14.45;;
35128;SDS011;21301;43.626;10.580;2022-12-07T09:40:40;21.70;;;13.50;;
35128;SDS011;21301;43.626;10.580;2022-12-07T09:43:15;30.80;;;14.50;;
35128;SDS011;21301;43.626;10.580;2022-12-07T09:45:44;35.22;;;20.33;;
35128;SDS011;21301;43.626;10.580;2022-12-07T09:48:17;41.92;;;22.38;;
35128;SDS011;21301;43.626;10.580;2022-12-07T09:50:58;45.67;;;25.80;;
35128;SDS011;21301;43.626;10.580;2022-12-07T09:53:27;44.33;;;24.83;;
35128;SDS011;21301;43.626;10.580;2022-12-07T09:55:58;46.13;;;26.35;;
35128;SDS011;21301;43.626;10.580;2022-12-07T09:58:25;48.75;;;25.65;;
35128;SDS011;21301;43.626;10.580;2022-12-07T10:01:00;42.50;;;24.95;;
35128;SDS011;21301;43.626;10.580;2022-12-07T10:03:36;38.97;;;22.05;;
35128;SDS011;21301;43.626;10.580;2022-12-07T10:06:04;44.63;;;24.90;;
35128;SDS011;21301;43.626;10.580;2022-12-07T10:08:31;38.92;;;22.20;;
35128;SDS011;21301;43.626;10.580;2022-12-07T10:10:57;33.20;;;19.50;;
35128;SDS011;21301;43.626;10.580;2022-12-07T10:13:36;35.13;;;19.50;;
35128;SDS011;21301;43.626;10.580;2022-12-07T10:16:26;32.08;;;20.00;;
35128;SDS011;21301;43.626;10.580;2022-12-07T10:18:57;36.83;;;21.15;;
35128;SDS011;21301;43.626;10.580;2022-12-07T10:21:58;38.00;;;19.90;;
35128;SDS011;21301;43.626;10.580;2022-12-07T10:24:24;29.42;;;19.10;;
35128;SDS011;21301;43.626;10.580;2022-12-07T10:26:51;31.40;;;20.30;;
35128;SDS011;21301;43.626;10.580;2022-12-07T10:29:22;26.77;;;17.60;;
35128;SDS011;21301;43.626;10.580;2022-12-07T10:31:54;24.20;;;15.77;;
35128;SDS011;21301;43.626;10.580;2022-12-07T10:34:25;25.63;;;15.13;;
35128;SDS011;21301;43.626;10.580;2022-12-07T10:36:54;21.83;;;15.10;;
35128;SDS011;21301;43.626;10.580;2022-12-07T10:39:42;23.58;;;15.00;;
35128;SDS011;21301;43.626;10.580;2022-12-07T10:42:28;26.13;;;15.13;;
35128;SDS011;21301;43.626;10.580;2022-12-07T10:45:10;25.63;;;15.30;;
35128;SDS011;21301;43.626;10.580;2022-12-07T11:04:11;18.35;;;10.57;;
35128;SDS011;21301;43.626;10.580;2022-12-07T11:34:07;5.00;;;2.03;;
35128;SDS011;21301;43.626;10.580;2022-12-07T11:36:50;4.90;;;2.60;;
35128;SDS011;21301;43.626;10.580;2022-12-07T11:41:48;7.45;;;2.35;;
35128;SDS011;21301;43.626;10.580;2022-12-07T11:49:26;4.55;;;1.27;;
35128;SDS011;21301;43.626;10.580;2022-12-07T11:52:02;6.95;;;3.25;;
35128;SDS011;21301;43.626;10.580;2022-12-07T11:54:35;4.57;;;1.92;;
35128;SDS011;21301;43.626;10.580;2022-12-07T11:57:09;3.47;;;1.60;;
35128;SDS011;21301;43.626;10.580;2022-12-07T11:59:43;5.10;;;1.73;;
35128;SDS011;21301;43.626;10.580;2022-12-07T12:02:39;4.75;;;1.90;;
35128;SDS011;21301;43.626;10.580;2022-12-07T12:05:13;3.90;;;1.80;;
35128;SDS011;21301;43.626;10.580;2022-12-07T12:07:46;3.63;;;1.60;;
35128;SDS011;21301;43.626;10.580;2022-12-07T12:10:26;5.47;;;2.42;;
35128;SDS011;21301;43.626;10.580;2022-12-07T12:21:26;5.88;;;2.95;;
35128;SDS011;21301;43.626;10.580;2022-12-07T12:24:02;7.45;;;2.72;;
35128;SDS011;21301;43.626;10.580;2022-12-07T12:26:50;7.63;;;2.67;;
35128;SDS011;21301;43.626;10.580;2022-12-07T12:29:38;7.43;;;2.40;;
35128;SDS011;21301;43.626;10.580;2022-12-07T12:32:14;6.50;;;2.80;;
35128;SDS011;21301;43.626;10.580;2022-12-07T12:37:52;5.85;;;2.30;;
35128;SDS011;21301;43.626;10.580;2022-12-07T12:45:25;15.88;;;8.25;;
35128;SDS011;21301;43.626;10.580;2022-12-07T12:47:53;3.70;;;1.90;;
35128;SDS011;21301;43.626;10.580;2022-12-07T12:50:36;7.55;;;2.58;;
35128;SDS011;21301;43.626;10.580;2022-12-07T12:53:22;6.05;;;2.83;;
35128;SDS011;21301;43.626;10.580;2022-12-07T12:55:58;5.10;;;2.55;;
35128;SDS011;21301;43.626;10.580;2022-12-07T12:58:41;6.82;;;2.72;;
35128;SDS011;21301;43.626;10.580;2022-12-07T13:07:08;7.10;;;2.88;;
35128;SDS011;21301;43.626;10.580;2022-12-07T13:09:37;4.65;;;2.13;;
35128;SDS011;21301;43.626;10.580;2022-12-07T13:12:13;4.85;;;2.05;;
35128;SDS011;21301;43.626;10.580;2022-12-07T13:24:57;5.95;;;2.30;;
35128;SDS011;21301;43.626;10.580;2022-12-07T13:27:34;7.25;;;2.70;;
35128;SDS011;21301;43.626;10.580;2022-12-07T13:30:09;6.22;;;3.05;;
35128;SDS011;21301;43.626;10.580;2022-12-07T13:32:43;11.02;;;3.75;;
35128;SDS011;21301;43.626;10.580;2022-12-07T13:35:31;6.55;;;3.20;;
35128;SDS011;21301;43.626;10.580;2022-12-07T13:38:13;6.47;;;3.53;;
35128;SDS011;21301;43.626;10.580;2022-12-07T13:41:03;6.97;;;3.72;;
35128;SDS011;21301;43.626;10.580;2022-12-07T13:43:29;7.57;;;3.42;;
35128;SDS011;21301;43.626;10.580;2022-12-07T13:45:58;5.45;;;2.42;;
35128;SDS011;21301;43.626;10.580;2022-12-07T13:48:45;5.65;;;2.50;;
35128;SDS011;21301;43.626;10.580;2022-12-07T13:53:47;8.98;;;2.85;;
35128;SDS011;21301;43.626;10.580;2022-12-07T13:56:14;4.30;;;2.30;;
35128;SDS011;21301;43.626;10.580;2022-12-07T13:58:41;13.82;;;4.95;;
35128;SDS011;21301;43.626;10.580;2022-12-07T14:01:07;4.22;;;1.85;;
35128;SDS011;21301;43.626;10.580;2022-12-07T14:03:34;4.20;;;1.77;;
35128;SDS011;21301;43.626;10.580;2022-12-07T14:06:13;4.82;;;2.42;;
35128;SDS011;21301;43.626;10.580;2022-12-07T14:08:45;4.35;;;1.88;;
35128;SDS011;21301;43.626;10.580;2022-12-07T14:11:16;3.42;;;1.70;;
35128;SDS011;21301;43.626;10.580;2022-12-07T14:13:45;3.55;;;1.83;;
35128;SDS011;21301;43.626;10.580;2022-12-07T14:18:55;5.28;;;1.98;;
35128;SDS011;21301;43.626;10.580;2022-12-07T14:21:24;4.15;;;1.75;;
35128;SDS011;21301;43.626;10.580;2022-12-07T14:26:44;7.53;;;2.38;;
35128;SDS011;21301;43.626;10.580;2022-12-07T14:29:20;4.45;;;2.42;;
35128;SDS011;21301;43.626;10.580;2022-12-07T14:31:55;6.07;;;2.03;;
35128;SDS011;21301;43.626;10.580;2022-12-07T14:34:23;4.50;;;1.65;;
35128;SDS011;21301;43.626;10.580;2022-12-07T14:36:50;4.97;;;2.20;;
35128;SDS011;21301;43.626;10.580;2022-12-07T14:39:16;4.40;;;1.95;;
35128;SDS011;21301;43.626;10.580;2022-12-07T14:41:41;5.65;;;2.55;;
35128;SDS011;21301;43.626;10.580;2022-12-07T14:44:17;4.60;;;2.05;;
35128;SDS011;21301;43.626;10.580;2022-12-07T14:46:49;5.68;;;2.20;;
35128;SDS011;21301;43.626;10.580;2022-12-07T14:49:16;6.97;;;2.22;;
35128;SDS011;21301;43.626;10.580;2022-12-07T14:51:42;9.57;;;4.30;;
35128;SDS011;21301;43.626;10.580;2022-12-07T14:54:17;4.88;;;2.50;;
35128;SDS011;21301;43.626;10.580;2022-12-07T14:56:45;6.65;;;2.38;;
35128;SDS011;21301;43.626;10.580;2022-12-07T14:59:17;5.50;;;2.75;;
35128;SDS011;21301;43.626;10.580;2022-12-07T15:01:44;4.82;;;2.35;;
35128;SDS011;21301;43.626;10.580;2022-12-07T15:04:10;4.45;;;2.17;;
35128;SDS011;21301;43.626;10.580;2022-12-07T15:06:36;4.72;;;1.90;;
35128;SDS011;21301;43.626;10.580;2022-12-07T15:09:02;4.28;;;2.10;;
35128;SDS011;21301;43.626;10.580;2022-12-07T15:11:28;4.32;;;2.30;;
35128;SDS011;21301;43.626;10.580;2022-12-07T15:13:54;3.55;;;1.85;;
35128;SDS011;21301;43.626;10.580;2022-12-07T15:16:37;3.60;;;1.50;;
35128;SDS011;21301;43.626;10.580;2022-12-07T15:19:17;5.85;;;2.20;;
35128;SDS011;21301;43.626;10.580;2022-12-07T15:21:47;4.85;;;2.17;;
35128;SDS011;21301;43.626;10.580;2022-12-07T15:24:13;7.30;;;2.60;;
35128;SDS011;21301;43.626;10.580;2022-12-07T15:26:39;8.57;;;2.35;;
35128;SDS011;21301;43.626;10.580;2022-12-07T15:29:06;5.28;;;2.08;;
35128;SDS011;21301;43.626;10.580;2022-12-07T15:31:32;6.45;;;3.00;;
35128;SDS011;21301;43.626;10.580;2022-12-07T15:33:59;5.78;;;2.38;;
35128;SDS011;21301;43.626;10.580;2022-12-07T15:36:27;5.03;;;2.60;;
35128;SDS011;21301;43.626;10.580;2022-12-07T15:38:54;6.78;;;2.83;;
35128;SDS011;21301;43.626;10.580;2022-12-07T15:41:21;12.33;;;4.50;;
35128;SDS011;21301;43.626;10.580;2022-12-07T15:43:47;8.13;;;4.05;;
35128;SDS011;21301;43.626;10.580;2022-12-07T15:46:38;8.02;;;3.30;;
35128;SDS011;21301;43.626;10.580;2022-12-07T15:49:07;8.52;;;3.40;;
35128;SDS011;21301;43.626;10.580;2022-12-07T15:51:39;8.80;;;4.03;;
35128;SDS011;21301;43.626;10.580;2022-12-07T15:54:08;8.10;;;3.40;;
35128;SDS011;21301;43.626;10.580;2022-12-07T15:56:45;7.00;;;3.00;;
35128;SDS011;21301;43.626;10.580;2022-12-07T15:59:11;13.27;;;3.45;;
35128;SDS011;21301;43.626;10.580;2022-12-07T16:01:36;7.07;;;3.38;;
35128;SDS011;21301;43.626;10.580;2022-12-07T16:04:02;6.60;;;3.80;;
35128;SDS011;21301;43.626;10.580;2022-12-07T16:06:28;7.22;;;3.25;;
35128;SDS011;21301;43.626;10.580;2022-12-07T16:08:54;4.28;;;2.13;;
35128;SDS011;21301;43.626;10.580;2022-12-07T16:11:20;8.35;;;3.25;;
35128;SDS011;21301;43.626;10.580;2022-12-07T16:13:46;5.05;;;2.63;;
35128;SDS011;21301;43.626;10.580;2022-12-07T16:16:13;8.55;;;4.85;;
35128;SDS011;21301;43.626;10.580;2022-12-07T16:18:44;9.85;;;6.15;;
35128;SDS011;21301;43.626;10.580;2022-12-07T16:21:11;12.10;;;6.90;;
35128;SDS011;21301;43.626;10.580;2022-12-07T16:23:37;10.55;;;6.78;;
35128;SDS011;21301;43.626;10.580;2022-12-07T16:26:07;40.33;;;20.20;;
35128;SDS011;21301;43.626;10.580;2022-12-07T16:28:35;13.82;;;7.07;;
35128;SDS011;21301;43.626;10.580;2022-12-07T16:31:05;12.98;;;8.07;;
35128;SDS011;21301;43.626;10.580;2022-12-07T16:33:34;25.02;;;13.65;;
35128;SDS011;21301;43.626;10.580;2022-12-07T16:36:00;23.48;;;11.98;;
35128;SDS011;21301;43.626;10.580;2022-12-07T16:38:26;25.77;;;12.80;;
35128;SDS011;21301;43.626;10.580;2022-12-07T16:40:52;20.95;;;12.13;;
35128;SDS011;21301;43.626;10.580;2022-12-07T16:43:18;19.92;;;11.32;;
35128;SDS011;21301;43.626;10.580;2022-12-07T16:45:45;18.15;;;11.00;;
35128;SDS011;21301;43.626;10.580;2022-12-07T16:48:13;20.35;;;11.77;;
35128;SDS011;21301;43.626;10.580;2022-12-07T16:50:40;22.05;;;10.48;;
35128;SDS011;21301;43.626;10.580;2022-12-07T16:53:10;16.27;;;9.60;;
35128;SDS011;21301;43.626;10.580;2022-12-07T16:55:37;15.50;;;9.60;;